sensor_id;sensor_type;location;lat;lon;timestamp;pressure;altitude;pressure_sealevel;temperature
57468;BMP280;43311;51.196;7.518;2024-01-27T00:01:34;98573.38;;;2.28
57468;BMP280;43311;51.196;7.518;2024-01-27T00:03:59;98567.72;;;2.09
57468;BMP280;43311;51.196;7.518;2024-01-27T00:06:25;98580.66;;;2.18
57468;BMP280;43311;51.196;7.518;2024-01-27T00:08:50;98560.72;;;2.02
57468;BMP280;43311;51.196;7.518;2024-01-27T00:11:16;98576.41;;;2.05
57468;BMP280;43311;51.196;7.518;2024-01-27T00:13:41;98571.81;;;2.02
57468;BMP280;43311;51.196;7.518;2024-01-27T00:16:07;98582.50;;;2.09
57468;BMP280;43311;51.196;7.518;2024-01-27T00:18:32;98582.34;;;2.05
57468;BMP280;43311;51.196;7.518;2024-01-27T00:20:57;98567.56;;;1.89
57468;BMP280;43311;51.196;7.518;2024-01-27T00:23:23;98567.69;;;1.93
57468;BMP280;43311;51.196;7.518;2024-01-27T00:25:48;98575.75;;;1.91
57468;BMP280;43311;51.196;7.518;2024-01-27T00:28:13;98585.69;;;1.98
57468;BMP280;43311;51.196;7.518;2024-01-27T00:30:39;98568.91;;;1.87
57468;BMP280;43311;51.196;7.518;2024-01-27T00:33:04;98580.34;;;1.86
57468;BMP280;43311;51.196;7.518;2024-01-27T00:35:29;98575.91;;;1.86
57468;BMP280;43311;51.196;7.518;2024-01-27T00:37:55;98558.09;;;1.76
57468;BMP280;43311;51.196;7.518;2024-01-27T00:40:20;98594.34;;;1.93
57468;BMP280;43311;51.196;7.518;2024-01-27T00:42:46;98582.28;;;1.80
57468;BMP280;43311;51.196;7.518;2024-01-27T00:45:11;98583.38;;;1.88
57468;BMP280;43311;51.196;7.518;2024-01-27T00:47:36;98588.53;;;1.79
57468;BMP280;43311;51.196;7.518;2024-01-27T00:50:02;98592.59;;;1.72
57468;BMP280;43311;51.196;7.518;2024-01-27T00:52:27;98595.91;;;1.64
57468;BMP280;43311;51.196;7.518;2024-01-27T00:54:52;98598.06;;;1.62
57468;BMP280;43311;51.196;7.518;2024-01-27T00:57:18;98601.16;;;1.72
57468;BMP280;43311;51.196;7.518;2024-01-27T00:59:43;98595.03;;;1.68
57468;BMP280;43311;51.196;7.518;2024-01-27T01:02:08;98601.72;;;1.69
57468;BMP280;43311;51.196;7.518;2024-01-27T01:04:34;98613.91;;;1.69
57468;BMP280;43311;51.196;7.518;2024-01-27T01:06:59;98609.94;;;1.63
57468;BMP280;43311;51.196;7.518;2024-01-27T01:09:24;98610.53;;;1.60
57468;BMP280;43311;51.196;7.518;2024-01-27T01:11:50;98608.97;;;1.59
57468;BMP280;43311;51.196;7.518;2024-01-27T01:14:16;98605.97;;;1.57
57468;BMP280;43311;51.196;7.518;2024-01-27T01:16:41;98594.53;;;1.49
57468;BMP280;43311;51.196;7.518;2024-01-27T01:19:07;98617.84;;;1.58
57468;BMP280;43311;51.196;7.518;2024-01-27T01:21:32;98603.94;;;1.54
57468;BMP280;43311;51.196;7.518;2024-01-27T01:23:58;98605.00;;;1.53
57468;BMP280;43311;51.196;7.518;2024-01-27T01:26:24;98615.34;;;1.53
57468;BMP280;43311;51.196;7.518;2024-01-27T01:28:50;98602.91;;;1.55
57468;BMP280;43311;51.196;7.518;2024-01-27T01:31:15;98609.25;;;1.49
57468;BMP280;43311;51.196;7.518;2024-01-27T01:33:42;98614.56;;;1.44
57468;BMP280;43311;51.196;7.518;2024-01-27T01:36:10;98623.84;;;1.45
57468;BMP280;43311;51.196;7.518;2024-01-27T01:38:35;98619.09;;;1.38
57468;BMP280;43311;51.196;7.518;2024-01-27T01:41:01;98636.28;;;1.43
57468;BMP280;43311;51.196;7.518;2024-01-27T01:43:26;98618.78;;;1.32
57468;BMP280;43311;51.196;7.518;2024-01-27T01:45:52;98623.03;;;1.36
57468;BMP280;43311;51.196;7.518;2024-01-27T01:48:20;98620.72;;;1.26
57468;BMP280;43311;51.196;7.518;2024-01-27T01:50:46;98627.28;;;1.32
57468;BMP280;43311;51.196;7.518;2024-01-27T01:53:12;98614.97;;;1.29
57468;BMP280;43311;51.196;7.518;2024-01-27T01:55:38;98623.28;;;1.26
57468;BMP280;43311;51.196;7.518;2024-01-27T01:58:03;98619.00;;;1.22
57468;BMP280;43311;51.196;7.518;2024-01-27T02:00:29;98615.19;;;1.19
57468;BMP280;43311;51.196;7.518;2024-01-27T02:02:55;98626.22;;;1.33
57468;BMP280;43311;51.196;7.518;2024-01-27T02:05:20;98603.94;;;1.15
57468;BMP280;43311;51.196;7.518;2024-01-27T02:07:46;98613.56;;;1.23
57468;BMP280;43311;51.196;7.518;2024-01-27T02:10:15;98608.53;;;1.18
57468;BMP280;43311;51.196;7.518;2024-01-27T02:12:42;98599.38;;;1.12
57468;BMP280;43311;51.196;7.518;2024-01-27T02:15:11;98613.53;;;1.15
57468;BMP280;43311;51.196;7.518;2024-01-27T02:17:38;98609.09;;;1.15
57468;BMP280;43311;51.196;7.518;2024-01-27T02:20:07;98612.28;;;1.12
57468;BMP280;43311;51.196;7.518;2024-01-27T02:22:34;98619.63;;;1.19
57468;BMP280;43311;51.196;7.518;2024-01-27T02:25:00;98621.31;;;1.23
57468;BMP280;43311;51.196;7.518;2024-01-27T02:27:25;98613.69;;;1.18
57468;BMP280;43311;51.196;7.518;2024-01-27T02:29:50;98621.59;;;1.22
57468;BMP280;43311;51.196;7.518;2024-01-27T02:32:16;98623.16;;;1.31
57468;BMP280;43311;51.196;7.518;2024-01-27T02:34:41;98615.38;;;1.23
57468;BMP280;43311;51.196;7.518;2024-01-27T02:37:06;98610.63;;;1.16
57468;BMP280;43311;51.196;7.518;2024-01-27T02:39:32;98600.88;;;1.13
57468;BMP280;43311;51.196;7.518;2024-01-27T02:41:57;98614.34;;;1.32
57468;BMP280;43311;51.196;7.518;2024-01-27T02:44:22;98607.91;;;1.21
57468;BMP280;43311;51.196;7.518;2024-01-27T02:46:48;98616.28;;;1.18
57468;BMP280;43311;51.196;7.518;2024-01-27T02:49:13;98610.16;;;1.14
57468;BMP280;43311;51.196;7.518;2024-01-27T02:51:38;98616.72;;;1.20
57468;BMP280;43311;51.196;7.518;2024-01-27T02:54:04;98605.91;;;1.10
57468;BMP280;43311;51.196;7.518;2024-01-27T02:56:29;98605.91;;;1.10
57468;BMP280;43311;51.196;7.518;2024-01-27T02:58:55;98606.03;;;1.13
57468;BMP280;43311;51.196;7.518;2024-01-27T03:01:20;98600.56;;;1.06
57468;BMP280;43311;51.196;7.518;2024-01-27T03:03:45;98615.16;;;1.11
57468;BMP280;43311;51.196;7.518;2024-01-27T03:06:11;98607.69;;;1.09
57468;BMP280;43311;51.196;7.518;2024-01-27T03:08:36;98631.78;;;1.18
57468;BMP280;43311;51.196;7.518;2024-01-27T03:11:02;98623.06;;;1.14
57468;BMP280;43311;51.196;7.518;2024-01-27T03:13:27;98622.50;;;1.17
57468;BMP280;43311;51.196;7.518;2024-01-27T03:15:53;98624.25;;;1.08
57468;BMP280;43311;51.196;7.518;2024-01-27T03:18:18;98619.56;;;1.10
57468;BMP280;43311;51.196;7.518;2024-01-27T03:20:44;98619.69;;;1.05
57468;BMP280;43311;51.196;7.518;2024-01-27T03:23:12;98615.09;;;1.02
57468;BMP280;43311;51.196;7.518;2024-01-27T03:25:38;98624.50;;;0.98
57468;BMP280;43311;51.196;7.518;2024-01-27T03:28:03;98632.91;;;1.04
57468;BMP280;43311;51.196;7.518;2024-01-27T03:30:29;98626.59;;;0.96
57468;BMP280;43311;51.196;7.518;2024-01-27T03:32:54;98619.16;;;0.95
57468;BMP280;43311;51.196;7.518;2024-01-27T03:35:19;98619.16;;;0.95
57468;BMP280;43311;51.196;7.518;2024-01-27T03:37:45;98622.84;;;1.02
57468;BMP280;43311;51.196;7.518;2024-01-27T03:40:11;98632.00;;;1.08
57468;BMP280;43311;51.196;7.518;2024-01-27T03:42:36;98624.50;;;0.98
57468;BMP280;43311;51.196;7.518;2024-01-27T03:45:02;98624.03;;;0.96
57468;BMP280;43311;51.196;7.518;2024-01-27T03:47:27;98624.38;;;1.03
57468;BMP280;43311;51.196;7.518;2024-01-27T03:49:53;98627.44;;;1.05
57468;BMP280;43311;51.196;7.518;2024-01-27T03:52:18;98618.75;;;1.01
57468;BMP280;43311;51.196;7.518;2024-01-27T03:54:43;98626.22;;;1.03
57468;BMP280;43311;51.196;7.518;2024-01-27T03:57:09;98614.00;;;0.95
57468;BMP280;43311;51.196;7.518;2024-01-27T03:59:34;98615.34;;;0.92
57468;BMP280;43311;51.196;7.518;2024-01-27T04:01:59;98622.09;;;1.02
57468;BMP280;43311;51.196;7.518;2024-01-27T04:04:25;98628.75;;;0.94
57468;BMP280;43311;51.196;7.518;2024-01-27T04:06:50;98632.84;;;0.95
57468;BMP280;43311;51.196;7.518;2024-01-27T04:09:15;98622.66;;;0.90
57468;BMP280;43311;51.196;7.518;2024-01-27T04:11:41;98634.97;;;0.93
57468;BMP280;43311;51.196;7.518;2024-01-27T04:14:06;98635.09;;;0.88
57468;BMP280;43311;51.196;7.518;2024-01-27T04:16:32;98638.41;;;0.89
57468;BMP280;43311;51.196;7.518;2024-01-27T04:18:59;98642.34;;;0.86
57468;BMP280;43311;51.196;7.518;2024-01-27T04:21:25;98640.53;;;0.87
57468;BMP280;43311;51.196;7.518;2024-01-27T04:23:50;98637.06;;;0.91
57468;BMP280;43311;51.196;7.518;2024-01-27T04:26:15;98649.41;;;0.94
57468;BMP280;43311;51.196;7.518;2024-01-27T04:28:41;98637.78;;;0.83
57468;BMP280;43311;51.196;7.518;2024-01-27T04:31:06;98643.88;;;0.87
57468;BMP280;43311;51.196;7.518;2024-01-27T04:33:32;98650.94;;;0.95
57468;BMP280;43311;51.196;7.518;2024-01-27T04:35:58;98646.94;;;0.89
57468;BMP280;43311;51.196;7.518;2024-01-27T04:38:23;98649.41;;;0.94
57468;BMP280;43311;51.196;7.518;2024-01-27T04:40:50;98644.94;;;0.86
57468;BMP280;43311;51.196;7.518;2024-01-27T04:43:18;98642.72;;;0.93
57468;BMP280;43311;51.196;7.518;2024-01-27T04:45:45;98656.84;;;0.96
57468;BMP280;43311;51.196;7.518;2024-01-27T04:48:12;98652.75;;;0.95
57468;BMP280;43311;51.196;7.518;2024-01-27T04:50:37;98669.41;;;0.89
57468;BMP280;43311;51.196;7.518;2024-01-27T04:53:02;98650.81;;;0.78
57468;BMP280;43311;51.196;7.518;2024-01-27T04:55:28;98642.81;;;0.67
57468;BMP280;43311;51.196;7.518;2024-01-27T04:57:53;98638.66;;;0.57
57468;BMP280;43311;51.196;7.518;2024-01-27T05:00:19;98653.97;;;0.75
57468;BMP280;43311;51.196;7.518;2024-01-27T05:02:45;98662.19;;;0.77
57468;BMP280;43311;51.196;7.518;2024-01-27T05:05:11;98651.03;;;0.68
57468;BMP280;43311;51.196;7.518;2024-01-27T05:07:40;98661.81;;;0.70
57468;BMP280;43311;51.196;7.518;2024-01-27T05:10:05;98655.13;;;0.69
57468;BMP280;43311;51.196;7.518;2024-01-27T05:12:31;98674.63;;;0.75
57468;BMP280;43311;51.196;7.518;2024-01-27T05:14:56;98662.19;;;0.77
57468;BMP280;43311;51.196;7.518;2024-01-27T05:17:21;98658.00;;;0.68
57468;BMP280;43311;51.196;7.518;2024-01-27T05:19:47;98673.56;;;0.76
57468;BMP280;43311;51.196;7.518;2024-01-27T05:22:12;98676.09;;;0.68
57468;BMP280;43311;51.196;7.518;2024-01-27T05:24:38;98648.56;;;0.64
57468;BMP280;43311;51.196;7.518;2024-01-27T05:27:03;98650.69;;;0.62
57468;BMP280;43311;51.196;7.518;2024-01-27T05:29:29;98664.91;;;0.72
57468;BMP280;43311;51.196;7.518;2024-01-27T05:31:54;98668.03;;;0.69
57468;BMP280;43311;51.196;7.518;2024-01-27T05:34:19;98654.13;;;0.57
57468;BMP280;43311;51.196;7.518;2024-01-27T05:36:47;98660.63;;;0.55
57468;BMP280;43311;51.196;7.518;2024-01-27T05:39:13;98645.44;;;0.53
57468;BMP280;43311;51.196;7.518;2024-01-27T05:41:38;98665.19;;;0.58
57468;BMP280;43311;51.196;7.518;2024-01-27T05:44:03;98667.69;;;0.63
57468;BMP280;43311;51.196;7.518;2024-01-27T05:46:29;98661.28;;;0.60
57468;BMP280;43311;51.196;7.518;2024-01-27T05:48:54;98646.88;;;0.46
57468;BMP280;43311;51.196;7.518;2024-01-27T05:51:23;98664.03;;;0.64
57468;BMP280;43311;51.196;7.518;2024-01-27T05:53:49;98660.16;;;0.53
57468;BMP280;43311;51.196;7.518;2024-01-27T05:56:14;98664.44;;;0.57
57468;BMP280;43311;51.196;7.518;2024-01-27T05:58:40;98676.25;;;0.50
57468;BMP280;43311;51.196;7.518;2024-01-27T06:01:05;98680.81;;;0.53
57468;BMP280;43311;51.196;7.518;2024-01-27T06:03:32;98660.00;;;0.36
57468;BMP280;43311;51.196;7.518;2024-01-27T06:06:00;98698.66;;;0.63
57468;BMP280;43311;51.196;7.518;2024-01-27T06:08:26;98670.28;;;0.49
57468;BMP280;43311;51.196;7.518;2024-01-27T06:10:51;98654.38;;;0.34
57468;BMP280;43311;51.196;7.518;2024-01-27T06:13:16;98671.19;;;0.45
57468;BMP280;43311;51.196;7.518;2024-01-27T06:15:42;98682.25;;;0.45
57468;BMP280;43311;51.196;7.518;2024-01-27T06:18:07;98677.66;;;0.56
57468;BMP280;43311;51.196;7.518;2024-01-27T06:20:32;98672.31;;;0.52
57468;BMP280;43311;51.196;7.518;2024-01-27T06:22:58;98676.50;;;0.48
57468;BMP280;43311;51.196;7.518;2024-01-27T06:25:23;98681.50;;;0.45
57468;BMP280;43311;51.196;7.518;2024-01-27T06:27:49;98675.13;;;0.42
57468;BMP280;43311;51.196;7.518;2024-01-27T06:30:14;98682.56;;;0.44
57468;BMP280;43311;51.196;7.518;2024-01-27T06:32:41;98668.78;;;0.35
57468;BMP280;43311;51.196;7.518;2024-01-27T06:35:06;98678.56;;;0.38
57468;BMP280;43311;51.196;7.518;2024-01-27T06:37:32;98689.91;;;0.37
57468;BMP280;43311;51.196;7.518;2024-01-27T06:39:58;98688.88;;;0.38
57468;BMP280;43311;51.196;7.518;2024-01-27T06:42:23;98689.31;;;0.40
57468;BMP280;43311;51.196;7.518;2024-01-27T06:44:49;98683.63;;;0.29
57468;BMP280;43311;51.196;7.518;2024-01-27T06:47:14;98668.34;;;0.33
57468;BMP280;43311;51.196;7.518;2024-01-27T06:49:39;98696.28;;;0.53
57468;BMP280;43311;51.196;7.518;2024-01-27T06:52:05;98694.41;;;0.45
57468;BMP280;43311;51.196;7.518;2024-01-27T06:54:30;98684.75;;;0.37
57468;BMP280;43311;51.196;7.518;2024-01-27T06:56:55;98700.31;;;0.45
57468;BMP280;43311;51.196;7.518;2024-01-27T06:59:21;98698.16;;;0.39
57468;BMP280;43311;51.196;7.518;2024-01-27T07:01:47;98709.19;;;0.53
57468;BMP280;43311;51.196;7.518;2024-01-27T07:04:16;98697.84;;;0.40
57468;BMP280;43311;51.196;7.518;2024-01-27T07:06:43;98703.09;;;0.49
57468;BMP280;43311;51.196;7.518;2024-01-27T07:09:08;98719.16;;;0.59
57468;BMP280;43311;51.196;7.518;2024-01-27T07:11:37;98693.44;;;0.41
57468;BMP280;43311;51.196;7.518;2024-01-27T07:14:03;98716.38;;;0.56
57468;BMP280;43311;51.196;7.518;2024-01-27T07:16:29;98710.72;;;0.54
57468;BMP280;43311;51.196;7.518;2024-01-27T07:18:54;98693.44;;;0.41
57468;BMP280;43311;51.196;7.518;2024-01-27T07:21:20;98704.25;;;0.43
57468;BMP280;43311;51.196;7.518;2024-01-27T07:23:45;98730.97;;;0.60
57468;BMP280;43311;51.196;7.518;2024-01-27T07:26:11;98706.53;;;0.44
57468;BMP280;43311;51.196;7.518;2024-01-27T07:28:37;98750.09;;;0.72
57468;BMP280;43311;51.196;7.518;2024-01-27T07:31:03;98749.91;;;0.69
57468;BMP280;43311;51.196;7.518;2024-01-27T07:33:29;98729.66;;;0.49
57468;BMP280;43311;51.196;7.518;2024-01-27T07:35:54;98732.69;;;0.65
57468;BMP280;43311;51.196;7.518;2024-01-27T07:38:19;98729.78;;;0.79
57468;BMP280;43311;51.196;7.518;2024-01-27T07:40:45;98730.06;;;1.13
57468;BMP280;43311;51.196;7.518;2024-01-27T07:43:10;98716.50;;;1.30
57468;BMP280;43311;51.196;7.518;2024-01-27T07:45:35;98722.91;;;1.10
57468;BMP280;43311;51.196;7.518;2024-01-27T07:48:01;98731.88;;;1.13
57468;BMP280;43311;51.196;7.518;2024-01-27T07:50:26;98726.69;;;0.91
57468;BMP280;43311;51.196;7.518;2024-01-27T07:52:52;98717.84;;;0.83
57468;BMP280;43311;51.196;7.518;2024-01-27T07:55:17;98714.66;;;0.86
57468;BMP280;43311;51.196;7.518;2024-01-27T07:57:43;98724.75;;;0.96
57468;BMP280;43311;51.196;7.518;2024-01-27T08:00:08;98731.75;;;1.18
57468;BMP280;43311;51.196;7.518;2024-01-27T08:02:34;98720.69;;;1.17
57468;BMP280;43311;51.196;7.518;2024-01-27T08:04:59;98721.72;;;1.16
57468;BMP280;43311;51.196;7.518;2024-01-27T08:07:25;98715.28;;;1.27
57468;BMP280;43311;51.196;7.518;2024-01-27T08:09:50;98732.66;;;1.35
57468;BMP280;43311;51.196;7.518;2024-01-27T08:12:15;98728.84;;;1.33
57468;BMP280;43311;51.196;7.518;2024-01-27T08:14:41;98732.66;;;1.35
57468;BMP280;43311;51.196;7.518;2024-01-27T08:17:06;98731.00;;;1.39
57468;BMP280;43311;51.196;7.518;2024-01-27T08:19:32;98737.75;;;1.48
57468;BMP280;43311;51.196;7.518;2024-01-27T08:21:57;98743.22;;;1.47
57468;BMP280;43311;51.196;7.518;2024-01-27T08:24:23;98753.09;;;1.45
57468;BMP280;43311;51.196;7.518;2024-01-27T08:26:49;98726.59;;;1.39
57468;BMP280;43311;51.196;7.518;2024-01-27T08:29:15;98740.97;;;1.54
57468;BMP280;43311;51.196;7.518;2024-01-27T08:31:43;98738.50;;;1.49
57468;BMP280;43311;51.196;7.518;2024-01-27T08:34:09;98735.81;;;1.54
57468;BMP280;43311;51.196;7.518;2024-01-27T08:36:37;98744.91;;;1.51
57468;BMP280;43311;51.196;7.518;2024-01-27T08:39:03;98742.06;;;1.61
57468;BMP280;43311;51.196;7.518;2024-01-27T08:41:29;98733.22;;;1.54
57468;BMP280;43311;51.196;7.518;2024-01-27T08:43:54;98749.56;;;1.63
57468;BMP280;43311;51.196;7.518;2024-01-27T08:46:20;98743.44;;;1.59
57468;BMP280;43311;51.196;7.518;2024-01-27T08:48:47;98752.28;;;1.58
57468;BMP280;43311;51.196;7.518;2024-01-27T08:51:12;98753.66;;;1.64
57468;BMP280;43311;51.196;7.518;2024-01-27T08:53:38;98764.22;;;1.76
57468;BMP280;43311;51.196;7.518;2024-01-27T08:56:04;98734.97;;;1.67
57468;BMP280;43311;51.196;7.518;2024-01-27T08:58:30;98767.97;;;1.92
57468;BMP280;43311;51.196;7.518;2024-01-27T09:00:56;98761.84;;;1.88
57468;BMP280;43311;51.196;7.518;2024-01-27T09:03:21;98766.44;;;1.91
57468;BMP280;43311;51.196;7.518;2024-01-27T09:05:47;98764.47;;;1.96
57468;BMP280;43311;51.196;7.518;2024-01-27T09:08:12;98762.91;;;1.87
57468;BMP280;43311;51.196;7.518;2024-01-27T09:10:38;98757.19;;;1.98
57468;BMP280;43311;51.196;7.518;2024-01-27T09:13:04;98756.28;;;1.94
57468;BMP280;43311;51.196;7.518;2024-01-27T09:15:30;98771.53;;;2.04
57468;BMP280;43311;51.196;7.518;2024-01-27T09:17:55;98768.63;;;2.05
57468;BMP280;43311;51.196;7.518;2024-01-27T09:20:22;98789.75;;;2.29
57468;BMP280;43311;51.196;7.518;2024-01-27T09:22:47;98786.66;;;2.19
57468;BMP280;43311;51.196;7.518;2024-01-27T09:25:14;98775.69;;;2.13
57468;BMP280;43311;51.196;7.518;2024-01-27T09:27:40;98777.69;;;2.25
57468;BMP280;43311;51.196;7.518;2024-01-27T09:30:06;98761.97;;;2.13
57468;BMP280;43311;51.196;7.518;2024-01-27T09:32:32;98784.22;;;2.22
57468;BMP280;43311;51.196;7.518;2024-01-27T09:34:57;98777.38;;;2.26
57468;BMP280;43311;51.196;7.518;2024-01-27T09:37:23;98772.84;;;2.32
57468;BMP280;43311;51.196;7.518;2024-01-27T09:39:48;98781.22;;;2.37
57468;BMP280;43311;51.196;7.518;2024-01-27T09:42:14;98768.69;;;2.22
57468;BMP280;43311;51.196;7.518;2024-01-27T09:44:47;98773.03;;;2.35
57468;BMP280;43311;51.196;7.518;2024-01-27T09:47:13;98772.25;;;2.43
57468;BMP280;43311;51.196;7.518;2024-01-27T09:49:44;98780.69;;;2.49
57468;BMP280;43311;51.196;7.518;2024-01-27T09:52:10;98769.84;;;2.47
57468;BMP280;43311;51.196;7.518;2024-01-27T09:54:35;98773.97;;;2.48
57468;BMP280;43311;51.196;7.518;2024-01-27T09:57:01;98763.31;;;2.49
57468;BMP280;43311;51.196;7.518;2024-01-27T09:59:27;98768.38;;;2.63
57468;BMP280;43311;51.196;7.518;2024-01-27T10:01:53;98763.94;;;2.63
57468;BMP280;43311;51.196;7.518;2024-01-27T10:04:19;98773.59;;;2.79
57468;BMP280;43311;51.196;7.518;2024-01-27T10:06:46;98764.13;;;2.75
57468;BMP280;43311;51.196;7.518;2024-01-27T10:09:13;98774.66;;;2.87
57468;BMP280;43311;51.196;7.518;2024-01-27T10:11:43;98754.09;;;2.90
57468;BMP280;43311;51.196;7.518;2024-01-27T10:14:10;98763.38;;;3.00
57468;BMP280;43311;51.196;7.518;2024-01-27T10:16:45;98748.00;;;3.03
57468;BMP280;43311;51.196;7.518;2024-01-27T10:19:16;98753.47;;;3.19
57468;BMP280;43311;51.196;7.518;2024-01-27T10:21:45;98772.25;;;3.16
57468;BMP280;43311;51.196;7.518;2024-01-27T10:24:10;98767.19;;;3.28
57468;BMP280;43311;51.196;7.518;2024-01-27T10:26:35;98760.19;;;3.20
57468;BMP280;43311;51.196;7.518;2024-01-27T10:29:01;98768.56;;;3.34
57468;BMP280;43311;51.196;7.518;2024-01-27T10:31:27;98775.44;;;3.38
57468;BMP280;43311;51.196;7.518;2024-01-27T10:33:54;98771.03;;;3.38
57468;BMP280;43311;51.196;7.518;2024-01-27T10:36:20;98759.41;;;3.61
57468;BMP280;43311;51.196;7.518;2024-01-27T10:38:45;98769.00;;;3.61
57468;BMP280;43311;51.196;7.518;2024-01-27T10:41:11;98784.38;;;3.83
57468;BMP280;43311;51.196;7.518;2024-01-27T10:43:38;98797.50;;;3.86
57468;BMP280;43311;51.196;7.518;2024-01-27T10:46:05;98773.25;;;3.82
57468;BMP280;43311;51.196;7.518;2024-01-27T10:48:32;98796.84;;;4.06
57468;BMP280;43311;51.196;7.518;2024-01-27T10:51:00;98804.47;;;4.11
57468;BMP280;43311;51.196;7.518;2024-01-27T10:53:29;98800.16;;;4.15
57468;BMP280;43311;51.196;7.518;2024-01-27T10:55:58;98813.09;;;4.32
57468;BMP280;43311;51.196;7.518;2024-01-27T10:58:24;98811.13;;;4.29
57468;BMP280;43311;51.196;7.518;2024-01-27T11:00:52;98801.13;;;4.39
57468;BMP280;43311;51.196;7.518;2024-01-27T11:03:18;98792.09;;;4.45
57468;BMP280;43311;51.196;7.518;2024-01-27T11:05:46;98803.09;;;4.51
57468;BMP280;43311;51.196;7.518;2024-01-27T11:08:12;98774.13;;;4.32
57468;BMP280;43311;51.196;7.518;2024-01-27T11:10:38;98785.31;;;4.53
57468;BMP280;43311;51.196;7.518;2024-01-27T11:13:04;98779.53;;;4.56
57468;BMP280;43311;51.196;7.518;2024-01-27T11:15:30;98766.34;;;4.61
57468;BMP280;43311;51.196;7.518;2024-01-27T11:17:59;98777.03;;;4.88
57468;BMP280;43311;51.196;7.518;2024-01-27T11:20:25;98775.44;;;4.95
57468;BMP280;43311;51.196;7.518;2024-01-27T11:22:51;98778.56;;;5.09
57468;BMP280;43311;51.196;7.518;2024-01-27T11:25:18;98773.13;;;5.02
57468;BMP280;43311;51.196;7.518;2024-01-27T11:27:45;98781.41;;;4.96
57468;BMP280;43311;51.196;7.518;2024-01-27T11:30:31;98784.41;;;5.06
57468;BMP280;43311;51.196;7.518;2024-01-27T11:33:01;98775.53;;;5.07
57468;BMP280;43311;51.196;7.518;2024-01-27T11:35:28;98776.41;;;5.11
57468;BMP280;43311;51.196;7.518;2024-01-27T11:37:54;98785.34;;;5.22
57468;BMP280;43311;51.196;7.518;2024-01-27T11:40:20;98788.53;;;5.28
57468;BMP280;43311;51.196;7.518;2024-01-27T11:42:55;98775.44;;;5.36
57468;BMP280;43311;51.196;7.518;2024-01-27T11:45:21;98777.44;;;5.51
57468;BMP280;43311;51.196;7.518;2024-01-27T11:47:46;98773.28;;;5.70
57468;BMP280;43311;51.196;7.518;2024-01-27T11:50:11;98768.41;;;5.69
57468;BMP280;43311;51.196;7.518;2024-01-27T11:52:37;98761.09;;;5.83
57468;BMP280;43311;51.196;7.518;2024-01-27T11:55:02;98761.09;;;5.83
57468;BMP280;43311;51.196;7.518;2024-01-27T11:57:29;98772.47;;;5.90
57468;BMP280;43311;51.196;7.518;2024-01-27T11:59:55;98768.16;;;5.94
57468;BMP280;43311;51.196;7.518;2024-01-27T12:02:21;98757.63;;;5.91
57468;BMP280;43311;51.196;7.518;2024-01-27T12:04:49;98767.00;;;6.04
57468;BMP280;43311;51.196;7.518;2024-01-27T12:07:15;98759.47;;;6.02
57468;BMP280;43311;51.196;7.518;2024-01-27T12:09:44;98757.63;;;5.91
57468;BMP280;43311;51.196;7.518;2024-01-27T12:15:03;98760.03;;;5.96
57468;BMP280;43311;51.196;7.518;2024-01-27T12:17:39;98729.78;;;5.71
57468;BMP280;43311;51.196;7.518;2024-01-27T12:20:23;98759.72;;;6.09
57468;BMP280;43311;51.196;7.518;2024-01-27T12:22:48;98777.84;;;6.17
57468;BMP280;43311;51.196;7.518;2024-01-27T12:25:20;98783.06;;;6.17
57468;BMP280;43311;51.196;7.518;2024-01-27T12:27:46;98788.03;;;6.10
57468;BMP280;43311;51.196;7.518;2024-01-27T12:30:12;98784.13;;;6.16
57468;BMP280;43311;51.196;7.518;2024-01-27T12:32:37;98781.34;;;6.10
57468;BMP280;43311;51.196;7.518;2024-01-27T12:35:06;98786.75;;;6.16
57468;BMP280;43311;51.196;7.518;2024-01-27T12:37:32;98788.50;;;6.12
57468;BMP280;43311;51.196;7.518;2024-01-27T12:39:57;98772.66;;;6.17
57468;BMP280;43311;51.196;7.518;2024-01-27T12:42:23;98787.84;;;6.27
57468;BMP280;43311;51.196;7.518;2024-01-27T12:44:48;98797.75;;;6.34
57468;BMP280;43311;51.196;7.518;2024-01-27T12:47:14;98797.66;;;6.42
57468;BMP280;43311;51.196;7.518;2024-01-27T12:49:39;98790.25;;;6.32
57468;BMP280;43311;51.196;7.518;2024-01-27T12:52:06;98778.31;;;6.31
57468;BMP280;43311;51.196;7.518;2024-01-27T12:54:32;98777.44;;;6.39
57468;BMP280;43311;51.196;7.518;2024-01-27T12:56:58;98768.53;;;6.28
57468;BMP280;43311;51.196;7.518;2024-01-27T12:59:23;98796.09;;;6.29
57468;BMP280;43311;51.196;7.518;2024-01-27T13:01:49;98783.09;;;6.41
57468;BMP280;43311;51.196;7.518;2024-01-27T13:04:15;98782.22;;;6.37
57468;BMP280;43311;51.196;7.518;2024-01-27T13:06:40;98776.56;;;6.23
57468;BMP280;43311;51.196;7.518;2024-01-27T13:09:06;98775.03;;;6.22
57468;BMP280;43311;51.196;7.518;2024-01-27T13:11:31;98770.03;;;6.17
57468;BMP280;43311;51.196;7.518;2024-01-27T13:13:56;98780.69;;;6.24
57468;BMP280;43311;51.196;7.518;2024-01-27T13:16:22;98764.63;;;6.22
57468;BMP280;43311;51.196;7.518;2024-01-27T13:18:47;98777.41;;;6.27
57468;BMP280;43311;51.196;7.518;2024-01-27T13:21:13;98768.09;;;6.26
57468;BMP280;43311;51.196;7.518;2024-01-27T13:23:38;98759.41;;;6.22
57468;BMP280;43311;51.196;7.518;2024-01-27T13:26:04;98752.03;;;6.12
57468;BMP280;43311;51.196;7.518;2024-01-27T13:28:29;98755.72;;;6.23
57468;BMP280;43311;51.196;7.518;2024-01-27T13:30:55;98746.78;;;6.01
57468;BMP280;43311;51.196;7.518;2024-01-27T13:33:20;98758.22;;;6.20
57468;BMP280;43311;51.196;7.518;2024-01-27T13:35:46;98753.56;;;6.25
57468;BMP280;43311;51.196;7.518;2024-01-27T13:38:15;98757.47;;;6.31
57468;BMP280;43311;51.196;7.518;2024-01-27T13:40:42;98760.06;;;6.19
57468;BMP280;43311;51.196;7.518;2024-01-27T13:43:10;98757.25;;;6.24
57468;BMP280;43311;51.196;7.518;2024-01-27T13:45:35;98742.56;;;6.20
57468;BMP280;43311;51.196;7.518;2024-01-27T13:48:02;98748.75;;;6.27
57468;BMP280;43311;51.196;7.518;2024-01-27T13:50:27;98754.09;;;6.31
57468;BMP280;43311;51.196;7.518;2024-01-27T13:52:55;98740.75;;;6.20
57468;BMP280;43311;51.196;7.518;2024-01-27T13:55:20;98736.84;;;6.26
57468;BMP280;43311;51.196;7.518;2024-01-27T13:57:48;98730.84;;;6.26
57468;BMP280;43311;51.196;7.518;2024-01-27T14:00:13;98735.53;;;6.20
57468;BMP280;43311;51.196;7.518;2024-01-27T14:02:39;98735.66;;;6.12
57468;BMP280;43311;51.196;7.518;2024-01-27T14:05:05;98728.47;;;6.09
57468;BMP280;43311;51.196;7.518;2024-01-27T14:07:32;98745.06;;;6.16
57468;BMP280;43311;51.196;7.518;2024-01-27T14:09:57;98743.56;;;6.15
57468;BMP280;43311;51.196;7.518;2024-01-27T14:12:23;98731.84;;;6.10
57468;BMP280;43311;51.196;7.518;2024-01-27T14:14:49;98740.75;;;6.20
57468;BMP280;43311;51.196;7.518;2024-01-27T14:17:16;98725.09;;;5.97